sensor_id;sensor_type;location;lat;lon;timestamp;P1;durP1;ratioP1;P2;durP2;ratioP2
21426;SDS011;10874;49.452;11.050;2023-05-10T00:01:51;7.07;;;6.37;;
21426;SDS011;10874;49.452;11.050;2023-05-10T00:04:18;6.67;;;6.00;;
21426;SDS011;10874;49.452;11.050;2023-05-10T00:06:45;7.43;;;6.63;;
21426;SDS011;10874;49.452;11.050;2023-05-10T00:09:12;6.87;;;6.17;;
21426;SDS011;10874;49.452;11.050;2023-05-10T00:11:38;6.90;;;6.20;;
21426;SDS011;10874;49.452;11.050;2023-05-10T00:14:05;7.57;;;6.87;;
21426;SDS011;10874;49.452;11.050;2023-05-10T00:16:32;7.70;;;6.93;;
21426;SDS011;10874;49.452;11.050;2023-05-10T00:18:59;6.57;;;5.97;;
21426;SDS011;10874;49.452;11.050;2023-05-10T00:21:25;6.83;;;6.20;;
21426;SDS011;10874;49.452;11.050;2023-05-10T00:23:53;6.67;;;6.07;;
21426;SDS011;10874;49.452;11.050;2023-05-10T00:26:19;6.73;;;6.10;;
21426;SDS011;10874;49.452;11.050;2023-05-10T00:28:50;8.33;;;6.07;;
21426;SDS011;10874;49.452;11.050;2023-05-10T00:31:17;7.20;;;6.50;;
21426;SDS011;10874;49.452;11.050;2023-05-10T00:33:44;13.40;;;11.00;;
21426;SDS011;10874;49.452;11.050;2023-05-10T00:36:11;14.90;;;11.40;;
21426;SDS011;10874;49.452;11.050;2023-05-10T00:38:38;35.67;;;27.33;;
21426;SDS011;10874;49.452;11.050;2023-05-10T00:41:04;16.47;;;14.67;;
21426;SDS011;10874;49.452;11.050;2023-05-10T00:43:33;7.13;;;6.43;;
21426;SDS011;10874;49.452;11.050;2023-05-10T00:46:00;8.63;;;6.27;;
21426;SDS011;10874;49.452;11.050;2023-05-10T00:48:28;7.00;;;6.27;;
21426;SDS011;10874;49.452;11.050;2023-05-10T00:50:55;7.07;;;6.30;;
21426;SDS011;10874;49.452;11.050;2023-05-10T00:53:22;6.43;;;5.83;;
21426;SDS011;10874;49.452;11.050;2023-05-10T00:55:48;6.13;;;5.57;;
21426;SDS011;10874;49.452;11.050;2023-05-10T00:58:15;7.60;;;5.90;;
21426;SDS011;10874;49.452;11.050;2023-05-10T01:00:42;7.53;;;5.77;;
21426;SDS011;10874;49.452;11.050;2023-05-10T01:03:10;6.90;;;5.83;;
21426;SDS011;10874;49.452;11.050;2023-05-10T01:05:37;6.57;;;5.97;;
21426;SDS011;10874;49.452;11.050;2023-05-10T01:08:04;6.90;;;5.90;;
21426;SDS011;10874;49.452;11.050;2023-05-10T01:10:31;6.43;;;5.83;;
21426;SDS011;10874;49.452;11.050;2023-05-10T01:12:58;6.37;;;5.77;;
21426;SDS011;10874;49.452;11.050;2023-05-10T01:15:25;6.60;;;6.00;;
21426;SDS011;10874;49.452;11.050;2023-05-10T01:17:52;6.33;;;5.73;;
21426;SDS011;10874;49.452;11.050;2023-05-10T01:20:26;5.97;;;5.37;;
21426;SDS011;10874;49.452;11.050;2023-05-10T01:25:38;6.00;;;5.50;;
21426;SDS011;10874;49.452;11.050;2023-05-10T01:33:50;6.20;;;5.70;;
21426;SDS011;10874;49.452;11.050;2023-05-10T01:36:31;6.13;;;5.53;;
21426;SDS011;10874;49.452;11.050;2023-05-10T01:44:06;5.67;;;5.17;;
21426;SDS011;10874;49.452;11.050;2023-05-10T01:46:36;5.90;;;5.40;;
21426;SDS011;10874;49.452;11.050;2023-05-10T01:49:08;5.37;;;4.87;;
21426;SDS011;10874;49.452;11.050;2023-05-10T01:51:36;5.47;;;4.90;;
21426;SDS011;10874;49.452;11.050;2023-05-10T01:54:05;5.67;;;5.17;;
21426;SDS011;10874;49.452;11.050;2023-05-10T01:56:32;5.13;;;4.57;;
21426;SDS011;10874;49.452;11.050;2023-05-10T01:59:00;6.07;;;5.53;;
21426;SDS011;10874;49.452;11.050;2023-05-10T02:01:29;6.10;;;5.33;;
21426;SDS011;10874;49.452;11.050;2023-05-10T02:03:56;5.53;;;5.03;;
21426;SDS011;10874;49.452;11.050;2023-05-10T02:06:24;5.60;;;5.10;;
21426;SDS011;10874;49.452;11.050;2023-05-10T02:08:52;5.80;;;4.93;;
21426;SDS011;10874;49.452;11.050;2023-05-10T02:11:19;5.53;;;4.90;;
21426;SDS011;10874;49.452;11.050;2023-05-10T02:13:48;5.40;;;4.90;;
21426;SDS011;10874;49.452;11.050;2023-05-10T02:16:16;4.87;;;4.47;;
21426;SDS011;10874;49.452;11.050;2023-05-10T02:18:43;5.07;;;4.67;;
21426;SDS011;10874;49.452;11.050;2023-05-10T02:21:10;4.93;;;4.53;;
21426;SDS011;10874;49.452;11.050;2023-05-10T02:23:38;5.03;;;4.53;;
21426;SDS011;10874;49.452;11.050;2023-05-10T02:26:05;4.67;;;4.17;;
21426;SDS011;10874;49.452;11.050;2023-05-10T02:28:32;4.63;;;4.03;;
21426;SDS011;10874;49.452;11.050;2023-05-10T02:31:01;5.10;;;4.60;;
21426;SDS011;10874;49.452;11.050;2023-05-10T02:33:27;4.43;;;4.03;;
21426;SDS011;10874;49.452;11.050;2023-05-10T02:35:55;4.80;;;3.87;;
21426;SDS011;10874;49.452;11.050;2023-05-10T02:38:22;4.43;;;3.93;;
21426;SDS011;10874;49.452;11.050;2023-05-10T02:40:49;3.53;;;3.23;;
21426;SDS011;10874;49.452;11.050;2023-05-10T02:43:17;3.80;;;3.50;;
21426;SDS011;10874;49.452;11.050;2023-05-10T02:45:46;3.23;;;3.03;;
21426;SDS011;10874;49.452;11.050;2023-05-10T02:48:13;4.03;;;3.47;;
21426;SDS011;10874;49.452;11.050;2023-05-10T02:50:42;3.67;;;3.33;;
21426;SDS011;10874;49.452;11.050;2023-05-10T02:53:10;3.87;;;3.03;;
21426;SDS011;10874;49.452;11.050;2023-05-10T02:55:39;3.30;;;3.00;;
21426;SDS011;10874;49.452;11.050;2023-05-10T02:58:06;3.20;;;2.90;;
21426;SDS011;10874;49.452;11.050;2023-05-10T03:00:33;2.83;;;2.57;;
21426;SDS011;10874;49.452;11.050;2023-05-10T03:03:00;3.30;;;3.00;;
21426;SDS011;10874;49.452;11.050;2023-05-10T03:05:27;2.53;;;2.33;;
21426;SDS011;10874;49.452;11.050;2023-05-10T03:07:55;2.80;;;2.07;;
21426;SDS011;10874;49.452;11.050;2023-05-10T03:10:27;2.07;;;1.97;;
21426;SDS011;10874;49.452;11.050;2023-05-10T03:15:31;2.17;;;1.97;;
21426;SDS011;10874;49.452;11.050;2023-05-10T03:20:55;2.27;;;1.90;;
21426;SDS011;10874;49.452;11.050;2023-05-10T03:23:27;2.20;;;2.00;;
21426;SDS011;10874;49.452;11.050;2023-05-10T03:25:56;3.63;;;1.90;;
21426;SDS011;10874;49.452;11.050;2023-05-10T03:28:24;2.20;;;2.00;;
21426;SDS011;10874;49.452;11.050;2023-05-10T03:30:52;1.87;;;1.77;;
21426;SDS011;10874;49.452;11.050;2023-05-10T03:33:19;1.97;;;1.53;;
21426;SDS011;10874;49.452;11.050;2023-05-10T03:35:46;1.90;;;1.70;;
21426;SDS011;10874;49.452;11.050;2023-05-10T03:38:13;1.90;;;1.60;;
21426;SDS011;10874;49.452;11.050;2023-05-10T03:40:40;1.63;;;1.53;;
21426;SDS011;10874;49.452;11.050;2023-05-10T03:43:07;1.37;;;1.27;;
21426;SDS011;10874;49.452;11.050;2023-05-10T03:45:34;1.63;;;1.23;;
21426;SDS011;10874;49.452;11.050;2023-05-10T03:48:02;1.37;;;1.00;;
21426;SDS011;10874;49.452;11.050;2023-05-10T03:50:29;0.80;;;0.80;;
21426;SDS011;10874;49.452;11.050;2023-05-10T03:52:56;1.53;;;0.90;;
21426;SDS011;10874;49.452;11.050;2023-05-10T03:55:23;0.77;;;0.70;;
21426;SDS011;10874;49.452;11.050;2023-05-10T03:57:50;1.83;;;1.00;;
21426;SDS011;10874;49.452;11.050;2023-05-10T04:00:17;1.10;;;0.90;;
21426;SDS011;10874;49.452;11.050;2023-05-10T04:02:46;1.00;;;1.00;;
21426;SDS011;10874;49.452;11.050;2023-05-10T04:05:18;0.90;;;0.90;;
21426;SDS011;10874;49.452;11.050;2023-05-10T04:07:45;0.77;;;0.77;;
21426;SDS011;10874;49.452;11.050;2023-05-10T04:10:11;1.67;;;1.07;;
21426;SDS011;10874;49.452;11.050;2023-05-10T04:12:38;1.17;;;0.70;;
21426;SDS011;10874;49.452;11.050;2023-05-10T04:15:05;0.80;;;0.80;;
21426;SDS011;10874;49.452;11.050;2023-05-10T04:17:33;0.60;;;0.60;;
21426;SDS011;10874;49.452;11.050;2023-05-10T04:20:00;0.80;;;0.80;;
21426;SDS011;10874;49.452;11.050;2023-05-10T04:22:26;1.00;;;0.73;;
21426;SDS011;10874;49.452;11.050;2023-05-10T04:24:54;1.53;;;0.90;;
21426;SDS011;10874;49.452;11.050;2023-05-10T04:27:20;0.60;;;0.60;;
21426;SDS011;10874;49.452;11.050;2023-05-10T04:29:48;4.63;;;1.77;;
21426;SDS011;10874;49.452;11.050;2023-05-10T04:32:15;4.57;;;1.57;;
21426;SDS011;10874;49.452;11.050;2023-05-10T04:34:43;2.53;;;1.00;;
21426;SDS011;10874;49.452;11.050;2023-05-10T04:37:10;1.27;;;0.70;;
21426;SDS011;10874;49.452;11.050;2023-05-10T04:39:36;1.33;;;0.60;;
21426;SDS011;10874;49.452;11.050;2023-05-10T04:42:07;0.90;;;0.80;;
21426;SDS011;10874;49.452;11.050;2023-05-10T04:44:33;1.10;;;0.60;;
21426;SDS011;10874;49.452;11.050;2023-05-10T04:47:00;1.37;;;1.00;;
21426;SDS011;10874;49.452;11.050;2023-05-10T04:49:29;0.67;;;0.67;;
21426;SDS011;10874;49.452;11.050;2023-05-10T04:51:56;1.40;;;0.70;;
21426;SDS011;10874;49.452;11.050;2023-05-10T04:54:22;0.60;;;0.60;;
21426;SDS011;10874;49.452;11.050;2023-05-10T04:56:49;5.10;;;0.90;;
21426;SDS011;10874;49.452;11.050;2023-05-10T04:59:16;0.77;;;0.63;;
21426;SDS011;10874;49.452;11.050;2023-05-10T05:01:42;0.60;;;0.60;;
21426;SDS011;10874;49.452;11.050;2023-05-10T05:04:09;1.67;;;0.70;;
21426;SDS011;10874;49.452;11.050;2023-05-10T05:06:36;0.70;;;0.70;;
21426;SDS011;10874;49.452;11.050;2023-05-10T05:09:03;1.03;;;1.00;;
21426;SDS011;10874;49.452;11.050;2023-05-10T05:11:29;0.67;;;0.67;;
21426;SDS011;10874;49.452;11.050;2023-05-10T05:13:56;0.80;;;0.80;;
21426;SDS011;10874;49.452;11.050;2023-05-10T05:16:25;0.77;;;0.77;;
21426;SDS011;10874;49.452;11.050;2023-05-10T05:18:53;2.33;;;1.07;;
21426;SDS011;10874;49.452;11.050;2023-05-10T05:21:19;1.77;;;0.87;;
21426;SDS011;10874;49.452;11.050;2023-05-10T05:23:46;1.63;;;0.83;;
21426;SDS011;10874;49.452;11.050;2023-05-10T05:26:13;2.00;;;1.17;;
21426;SDS011;10874;49.452;11.050;2023-05-10T05:28:41;3.47;;;1.10;;
21426;SDS011;10874;49.452;11.050;2023-05-10T05:31:08;1.57;;;1.20;;
21426;SDS011;10874;49.452;11.050;2023-05-10T05:33:35;1.70;;;1.10;;
21426;SDS011;10874;49.452;11.050;2023-05-10T05:36:03;1.37;;;1.27;;
21426;SDS011;10874;49.452;11.050;2023-05-10T05:38:29;7.57;;;3.07;;
21426;SDS011;10874;49.452;11.050;2023-05-10T05:40:56;9.60;;;3.37;;
21426;SDS011;10874;49.452;11.050;2023-05-10T05:43:23;1.83;;;0.93;;
21426;SDS011;10874;49.452;11.050;2023-05-10T05:45:51;1.43;;;0.80;;
21426;SDS011;10874;49.452;11.050;2023-05-10T05:48:18;1.03;;;1.00;;
21426;SDS011;10874;49.452;11.050;2023-05-10T05:50:45;0.97;;;0.83;;
21426;SDS011;10874;49.452;11.050;2023-05-10T05:53:12;0.93;;;0.90;;
21426;SDS011;10874;49.452;11.050;2023-05-10T05:55:39;2.53;;;1.00;;
21426;SDS011;10874;49.452;11.050;2023-05-10T05:58:05;2.70;;;2.20;;
21426;SDS011;10874;49.452;11.050;2023-05-10T06:00:32;5.53;;;4.93;;
21426;SDS011;10874;49.452;11.050;2023-05-10T06:02:59;1.97;;;1.87;;
21426;SDS011;10874;49.452;11.050;2023-05-10T06:05:26;2.37;;;2.17;;
21426;SDS011;10874;49.452;11.050;2023-05-10T06:07:52;1.30;;;1.23;;
21426;SDS011;10874;49.452;11.050;2023-05-10T06:10:19;1.13;;;1.03;;
21426;SDS011;10874;49.452;11.050;2023-05-10T06:12:46;1.00;;;0.90;;
21426;SDS011;10874;49.452;11.050;2023-05-10T06:15:13;1.17;;;1.07;;
21426;SDS011;10874;49.452;11.050;2023-05-10T06:17:40;1.07;;;0.97;;
21426;SDS011;10874;49.452;11.050;2023-05-10T06:20:07;1.20;;;1.10;;
21426;SDS011;10874;49.452;11.050;2023-05-10T06:22:34;0.97;;;0.97;;
21426;SDS011;10874;49.452;11.050;2023-05-10T06:25:00;1.80;;;0.90;;
21426;SDS011;10874;49.452;11.050;2023-05-10T06:27:28;1.20;;;1.10;;
21426;SDS011;10874;49.452;11.050;2023-05-10T06:29:55;1.50;;;1.20;;
21426;SDS011;10874;49.452;11.050;2023-05-10T06:32:35;1.70;;;0.90;;
21426;SDS011;10874;49.452;11.050;2023-05-10T06:35:01;2.27;;;1.07;;
21426;SDS011;10874;49.452;11.050;2023-05-10T06:37:28;3.07;;;1.20;;
21426;SDS011;10874;49.452;11.050;2023-05-10T06:39:55;1.50;;;1.10;;
21426;SDS011;10874;49.452;11.050;2023-05-10T06:42:22;1.10;;;1.10;;
21426;SDS011;10874;49.452;11.050;2023-05-10T06:44:51;1.10;;;1.10;;
21426;SDS011;10874;49.452;11.050;2023-05-10T06:47:17;1.40;;;1.30;;
21426;SDS011;10874;49.452;11.050;2023-05-10T06:49:44;1.27;;;1.17;;
21426;SDS011;10874;49.452;11.050;2023-05-10T06:52:11;1.30;;;1.20;;
21426;SDS011;10874;49.452;11.050;2023-05-10T06:54:37;1.23;;;1.10;;
21426;SDS011;10874;49.452;11.050;2023-05-10T06:57:05;1.37;;;1.20;;
21426;SDS011;10874;49.452;11.050;2023-05-10T06:59:45;1.10;;;1.00;;
21426;SDS011;10874;49.452;11.050;2023-05-10T07:02:11;6.03;;;1.30;;
21426;SDS011;10874;49.452;11.050;2023-05-10T07:04:39;1.93;;;0.90;;
21426;SDS011;10874;49.452;11.050;2023-05-10T07:07:06;0.93;;;0.93;;
21426;SDS011;10874;49.452;11.050;2023-05-10T07:09:32;1.17;;;1.07;;
21426;SDS011;10874;49.452;11.050;2023-05-10T07:11:59;2.07;;;1.50;;
21426;SDS011;10874;49.452;11.050;2023-05-10T07:14:26;1.20;;;0.90;;
21426;SDS011;10874;49.452;11.050;2023-05-10T07:16:52;0.97;;;0.90;;
21426;SDS011;10874;49.452;11.050;2023-05-10T07:19:19;1.20;;;1.10;;
21426;SDS011;10874;49.452;11.050;2023-05-10T07:21:46;2.40;;;1.30;;
21426;SDS011;10874;49.452;11.050;2023-05-10T07:24:12;1.73;;;1.10;;
21426;SDS011;10874;49.452;11.050;2023-05-10T07:26:39;7.10;;;1.50;;
21426;SDS011;10874;49.452;11.050;2023-05-10T07:29:06;1.40;;;1.30;;
21426;SDS011;10874;49.452;11.050;2023-05-10T07:31:33;1.10;;;0.93;;
21426;SDS011;10874;49.452;11.050;2023-05-10T07:34:00;1.23;;;1.10;;
21426;SDS011;10874;49.452;11.050;2023-05-10T07:36:26;1.93;;;1.20;;
21426;SDS011;10874;49.452;11.050;2023-05-10T07:38:54;1.30;;;1.20;;
21426;SDS011;10874;49.452;11.050;2023-05-10T07:41:21;2.73;;;1.40;;
21426;SDS011;10874;49.452;11.050;2023-05-10T07:43:48;1.40;;;1.30;;
21426;SDS011;10874;49.452;11.050;2023-05-10T07:46:15;2.50;;;1.50;;
21426;SDS011;10874;49.452;11.050;2023-05-10T07:48:42;1.57;;;1.20;;
21426;SDS011;10874;49.452;11.050;2023-05-10T07:51:09;1.27;;;1.10;;
21426;SDS011;10874;49.452;11.050;2023-05-10T07:53:37;2.23;;;1.20;;
21426;SDS011;10874;49.452;11.050;2023-05-10T07:56:25;2.37;;;1.60;;
21426;SDS011;10874;49.452;11.050;2023-05-10T07:58:51;2.00;;;1.30;;
21426;SDS011;10874;49.452;11.050;2023-05-10T08:01:18;3.93;;;1.50;;
21426;SDS011;10874;49.452;11.050;2023-05-10T08:03:45;1.60;;;1.50;;
21426;SDS011;10874;49.452;11.050;2023-05-10T08:06:12;4.10;;;1.27;;
21426;SDS011;10874;49.452;11.050;2023-05-10T08:08:39;1.97;;;1.50;;
21426;SDS011;10874;49.452;11.050;2023-05-10T08:11:06;3.10;;;1.73;;
21426;SDS011;10874;49.452;11.050;2023-05-10T08:13:33;2.57;;;1.10;;
21426;SDS011;10874;49.452;11.050;2023-05-10T08:16:00;1.20;;;1.00;;
21426;SDS011;10874;49.452;11.050;2023-05-10T08:18:27;2.30;;;1.57;;
21426;SDS011;10874;49.452;11.050;2023-05-10T08:20:54;2.30;;;1.60;;
21426;SDS011;10874;49.452;11.050;2023-05-10T08:23:20;1.67;;;1.50;;
21426;SDS011;10874;49.452;11.050;2023-05-10T08:25:47;6.10;;;1.47;;
21426;SDS011;10874;49.452;11.050;2023-05-10T08:28:14;4.20;;;1.77;;
21426;SDS011;10874;49.452;11.050;2023-05-10T08:30:41;14.17;;;3.40;;
21426;SDS011;10874;49.452;11.050;2023-05-10T08:33:08;9.13;;;2.13;;
21426;SDS011;10874;49.452;11.050;2023-05-10T08:35:34;5.00;;;2.17;;
21426;SDS011;10874;49.452;11.050;2023-05-10T08:38:01;1.93;;;1.50;;
21426;SDS011;10874;49.452;11.050;2023-05-10T08:40:28;2.03;;;1.60;;
21426;SDS011;10874;49.452;11.050;2023-05-10T08:43:08;4.67;;;1.90;;
21426;SDS011;10874;49.452;11.050;2023-05-10T08:45:37;18.63;;;4.67;;
21426;SDS011;10874;49.452;11.050;2023-05-10T08:48:07;31.13;;;5.93;;
21426;SDS011;10874;49.452;11.050;2023-05-10T08:50:38;9.97;;;3.07;;
21426;SDS011;10874;49.452;11.050;2023-05-10T08:53:12;8.10;;;2.30;;
21426;SDS011;10874;49.452;11.050;2023-05-10T08:55:39;1.90;;;1.67;;
21426;SDS011;10874;49.452;11.050;2023-05-10T08:58:06;2.40;;;2.20;;
21426;SDS011;10874;49.452;11.050;2023-05-10T09:00:33;2.90;;;1.33;;
21426;SDS011;10874;49.452;11.050;2023-05-10T09:03:01;1.60;;;1.50;;
21426;SDS011;10874;49.452;11.050;2023-05-10T09:05:28;2.13;;;1.53;;
21426;SDS011;10874;49.452;11.050;2023-05-10T09:07:54;7.80;;;2.40;;
21426;SDS011;10874;49.452;11.050;2023-05-10T09:10:21;6.20;;;2.75;;
21426;SDS011;10874;49.452;11.050;2023-05-10T09:12:50;4.80;;;2.37;;
21426;SDS011;10874;49.452;11.050;2023-05-10T09:15:17;4.67;;;2.40;;
21426;SDS011;10874;49.452;11.050;2023-05-10T09:17:46;2.73;;;2.00;;
21426;SDS011;10874;49.452;11.050;2023-05-10T09:20:13;3.83;;;1.70;;
21426;SDS011;10874;49.452;11.050;2023-05-10T09:22:40;2.33;;;2.00;;
21426;SDS011;10874;49.452;11.050;2023-05-10T09:25:08;2.63;;;2.20;;
21426;SDS011;10874;49.452;11.050;2023-05-10T09:27:35;2.03;;;1.93;;
21426;SDS011;10874;49.452;11.050;2023-05-10T09:30:02;3.70;;;2.03;;
21426;SDS011;10874;49.452;11.050;2023-05-10T09:32:39;4.67;;;2.60;;
21426;SDS011;10874;49.452;11.050;2023-05-10T09:35:10;4.00;;;2.30;;
21426;SDS011;10874;49.452;11.050;2023-05-10T09:37:38;6.77;;;3.20;;
21426;SDS011;10874;49.452;11.050;2023-05-10T09:40:08;6.90;;;2.77;;
21426;SDS011;10874;49.452;11.050;2023-05-10T09:42:37;2.40;;;2.10;;
21426;SDS011;10874;49.452;11.050;2023-05-10T09:45:04;4.53;;;2.50;;
21426;SDS011;10874;49.452;11.050;2023-05-10T09:47:32;4.43;;;2.67;;
21426;SDS011;10874;49.452;11.050;2023-05-10T09:49:59;4.97;;;2.47;;
21426;SDS011;10874;49.452;11.050;2023-05-10T09:52:30;7.07;;;2.93;;
21426;SDS011;10874;49.452;11.050;2023-05-10T09:54:57;3.70;;;2.40;;
21426;SDS011;10874;49.452;11.050;2023-05-10T09:57:24;2.60;;;2.40;;
21426;SDS011;10874;49.452;11.050;2023-05-10T09:59:51;3.13;;;2.60;;
21426;SDS011;10874;49.452;11.050;2023-05-10T10:02:20;5.40;;;2.20;;
21426;SDS011;10874;49.452;11.050;2023-05-10T10:04:48;4.80;;;2.13;;
21426;SDS011;10874;49.452;11.050;2023-05-10T10:07:17;2.77;;;2.57;;
21426;SDS011;10874;49.452;11.050;2023-05-10T10:09:48;2.03;;;1.93;;
21426;SDS011;10874;49.452;11.050;2023-05-10T10:12:15;1.47;;;1.20;;
21426;SDS011;10874;49.452;11.050;2023-05-10T10:14:41;1.80;;;1.70;;
21426;SDS011;10874;49.452;11.050;2023-05-10T10:17:08;2.53;;;1.63;;
21426;SDS011;10874;49.452;11.050;2023-05-10T10:19:35;1.97;;;1.50;;
21426;SDS011;10874;49.452;11.050;2023-05-10T10:22:03;2.30;;;1.63;;
21426;SDS011;10874;49.452;11.050;2023-05-10T10:24:30;1.70;;;1.60;;
21426;SDS011;10874;49.452;11.050;2023-05-10T10:26:59;2.93;;;1.57;;
21426;SDS011;10874;49.452;11.050;2023-05-10T10:29:39;2.63;;;1.60;;
21426;SDS011;10874;49.452;11.050;2023-05-10T10:34:50;1.40;;;1.30;;
21426;SDS011;10874;49.452;11.050;2023-05-10T10:37:17;1.60;;;1.30;;
21426;SDS011;10874;49.452;11.050;2023-05-10T10:39:44;1.33;;;1.23;;
21426;SDS011;10874;49.452;11.050;2023-05-10T10:44:37;12.43;;;3.20;;
21426;SDS011;10874;49.452;11.050;2023-05-10T10:49:51;14.70;;;3.20;;
21426;SDS011;10874;49.452;11.050;2023-05-10T10:57:32;4.03;;;1.90;;
21426;SDS011;10874;49.452;11.050;2023-05-10T11:02:45;2.37;;;1.30;;
21426;SDS011;10874;49.452;11.050;2023-05-10T11:07:59;8.07;;;1.93;;
21426;SDS011;10874;49.452;11.050;2023-05-10T11:10:26;4.67;;;1.60;;
21426;SDS011;10874;49.452;11.050;2023-05-10T11:13:03;5.03;;;1.73;;
21426;SDS011;10874;49.452;11.050;2023-05-10T11:18:16;17.23;;;3.63;;
21426;SDS011;10874;49.452;11.050;2023-05-10T11:20:43;24.57;;;4.57;;
21426;SDS011;10874;49.452;11.050;2023-05-10T11:23:13;16.13;;;3.60;;
21426;SDS011;10874;49.452;11.050;2023-05-10T11:25:42;16.23;;;3.87;;
21426;SDS011;10874;49.452;11.050;2023-05-10T11:28:10;11.00;;;4.70;;
21426;SDS011;10874;49.452;11.050;2023-05-10T11:30:38;8.43;;;4.23;;
21426;SDS011;10874;49.452;11.050;2023-05-10T11:33:05;2.90;;;2.70;;
21426;SDS011;10874;49.452;11.050;2023-05-10T11:35:39;3.10;;;2.53;;
21426;SDS011;10874;49.452;11.050;2023-05-10T11:38:09;4.17;;;1.90;;
21426;SDS011;10874;49.452;11.050;2023-05-10T11:40:36;2.00;;;1.40;;
21426;SDS011;10874;49.452;11.050;2023-05-10T11:43:03;1.73;;;1.30;;
21426;SDS011;10874;49.452;11.050;2023-05-10T11:45:33;1.60;;;1.47;;
21426;SDS011;10874;49.452;11.050;2023-05-10T11:48:01;8.27;;;2.10;;
21426;SDS011;10874;49.452;11.050;2023-05-10T11:50:27;11.27;;;3.30;;
21426;SDS011;10874;49.452;11.050;2023-05-10T11:52:55;19.17;;;4.17;;
21426;SDS011;10874;49.452;11.050;2023-05-10T11:55:22;10.67;;;2.60;;
21426;SDS011;10874;49.452;11.050;2023-05-10T11:57:51;7.57;;;1.80;;
21426;SDS011;10874;49.452;11.050;2023-05-10T12:00:18;2.27;;;1.70;;
21426;SDS011;10874;49.452;11.050;2023-05-10T12:02:45;1.90;;;1.60;;
21426;SDS011;10874;49.452;11.050;2023-05-10T12:05:12;2.70;;;1.70;;
21426;SDS011;10874;49.452;11.050;2023-05-10T12:07:39;1.73;;;1.63;;
21426;SDS011;10874;49.452;11.050;2023-05-10T12:10:07;2.23;;;2.03;;
21426;SDS011;10874;49.452;11.050;2023-05-10T12:12:41;2.77;;;1.67;;
21426;SDS011;10874;49.452;11.050;2023-05-10T12:15:19;1.87;;;1.60;;
21426;SDS011;10874;49.452;11.050;2023-05-10T12:17:46;2.20;;;1.50;;
21426;SDS011;10874;49.452;11.050;2023-05-10T12:20:17;2.77;;;1.50;;
21426;SDS011;10874;49.452;11.050;2023-05-10T12:22:51;3.97;;;1.90;;
21426;SDS011;10874;49.452;11.050;2023-05-10T12:25:19;1.93;;;1.73;;
21426;SDS011;10874;49.452;11.050;2023-05-10T12:27:53;1.93;;;1.80;;
21426;SDS011;10874;49.452;11.050;2023-05-10T12:30:24;1.70;;;1.60;;
21426;SDS011;10874;49.452;11.050;2023-05-10T12:32:52;2.10;;;1.60;;
21426;SDS011;10874;49.452;11.050;2023-05-10T12:35:19;1.77;;;1.60;;
21426;SDS011;10874;49.452;11.050;2023-05-10T12:37:50;2.33;;;1.30;;
21426;SDS011;10874;49.452;11.050;2023-05-10T12:40:17;2.63;;;1.50;;
21426;SDS011;10874;49.452;11.050;2023-05-10T12:42:44;1.27;;;1.17;;
21426;SDS011;10874;49.452;11.050;2023-05-10T12:45:11;2.00;;;1.37;;
21426;SDS011;10874;49.452;11.050;2023-05-10T12:47:38;2.23;;;1.20;;
21426;SDS011;10874;49.452;11.050;2023-05-10T12:50:09;1.13;;;1.00;;
21426;SDS011;10874;49.452;11.050;2023-05-10T12:52:36;1.73;;;1.17;;
21426;SDS011;10874;49.452;11.050;2023-05-10T12:55:03;2.03;;;1.20;;
21426;SDS011;10874;49.452;11.050;2023-05-10T12:57:30;1.23;;;1.17;;
21426;SDS011;10874;49.452;11.050;2023-05-10T12:59:57;1.30;;;1.20;;
21426;SDS011;10874;49.452;11.050;2023-05-10T13:02:24;5.37;;;4.50;;
21426;SDS011;10874;49.452;11.050;2023-05-10T13:04:50;4.97;;;3.13;;
21426;SDS011;10874;49.452;11.050;2023-05-10T13:07:17;2.80;;;2.50;;
21426;SDS011;10874;49.452;11.050;2023-05-10T13:09:44;1.70;;;1.60;;
21426;SDS011;10874;49.452;11.050;2023-05-10T13:12:12;1.50;;;1.40;;
21426;SDS011;10874;49.452;11.050;2023-05-10T13:14:38;1.53;;;1.20;;
21426;SDS011;10874;49.452;11.050;2023-05-10T13:17:07;1.77;;;1.50;;
21426;SDS011;10874;49.452;11.050;2023-05-10T13:19:34;1.93;;;1.40;;
21426;SDS011;10874;49.452;11.050;2023-05-10T13:22:00;1.47;;;1.37;;
21426;SDS011;10874;49.452;11.050;2023-05-10T13:24:27;2.13;;;1.40;;
21426;SDS011;10874;49.452;11.050;2023-05-10T13:26:54;3.37;;;1.30;;
21426;SDS011;10874;49.452;11.050;2023-05-10T13:29:21;1.53;;;1.40;;
21426;SDS011;10874;49.452;11.050;2023-05-10T13:31:49;1.50;;;1.40;;
21426;SDS011;10874;49.452;11.050;2023-05-10T13:34:16;1.10;;;1.00;;
21426;SDS011;10874;49.452;11.050;2023-05-10T13:36:43;2.03;;;1.00;;
21426;SDS011;10874;49.452;11.050;2023-05-10T13:39:09;1.13;;;1.00;;
21426;SDS011;10874;49.452;11.050;2023-05-10T13:41:36;1.97;;;1.30;;
21426;SDS011;10874;49.452;11.050;2023-05-10T13:44:03;1.90;;;1.70;;
21426;SDS011;10874;49.452;11.050;2023-05-10T13:46:30;2.03;;;1.40;;
21426;SDS011;10874;49.452;11.050;2023-05-10T13:48:57;1.40;;;1.30;;
21426;SDS011;10874;49.452;11.050;2023-05-10T13:51:24;1.30;;;1.20;;
21426;SDS011;10874;49.452;11.050;2023-05-10T13:53:50;1.40;;;0.97;;
21426;SDS011;10874;49.452;11.050;2023-05-10T13:56:17;1.47;;;1.20;;
21426;SDS011;10874;49.452;11.050;2023-05-10T13:58:44;2.20;;;1.40;;
21426;SDS011;10874;49.452;11.050;2023-05-10T14:01:10;1.30;;;1.20;;
21426;SDS011;10874;49.452;11.050;2023-05-10T14:03:38;1.30;;;1.20;;
21426;SDS011;10874;49.452;11.050;2023-05-10T14:06:05;1.80;;;1.17;;
21426;SDS011;10874;49.452;11.050;2023-05-10T14:08:34;1.53;;;1.17;;
21426;SDS011;10874;49.452;11.050;2023-05-10T14:11:01;1.70;;;1.00;;
21426;SDS011;10874;49.452;11.050;2023-05-10T14:13:28;1.00;;;0.90;;
21426;SDS011;10874;49.452;11.050;2023-05-10T14:15:54;1.37;;;1.03;;
21426;SDS011;10874;49.452;11.050;2023-05-10T14:18:22;3.97;;;1.17;;
21426;SDS011;10874;49.452;11.050;2023-05-10T14:20:48;3.70;;;1.43;;
21426;SDS011;10874;49.452;11.050;2023-05-10T14:23:15;9.53;;;2.27;;
21426;SDS011;10874;49.452;11.050;2023-05-10T14:25:42;5.03;;;1.43;;
21426;SDS011;10874;49.452;11.050;2023-05-10T14:28:09;1.43;;;1.10;;
21426;SDS011;10874;49.452;11.050;2023-05-10T14:30:35;1.77;;;1.07;;
21426;SDS011;10874;49.452;11.050;2023-05-10T14:33:02;1.50;;;1.40;;
21426;SDS011;10874;49.452;11.050;2023-05-10T14:35:29;3.40;;;1.33;;
21426;SDS011;10874;49.452;11.050;2023-05-10T14:37:57;1.63;;;1.07;;
21426;SDS011;10874;49.452;11.050;2023-05-10T14:40:25;1.13;;;1.03;;
21426;SDS011;10874;49.452;11.050;2023-05-10T14:42:52;1.53;;;1.23;;
21426;SDS011;10874;49.452;11.050;2023-05-10T14:45:20;1.43;;;1.33;;
21426;SDS011;10874;49.452;11.050;2023-05-10T14:47:46;1.30;;;1.20;;
21426;SDS011;10874;49.452;11.050;2023-05-10T14:50:13;1.00;;;1.00;;
21426;SDS011;10874;49.452;11.050;2023-05-10T14:53:00;1.67;;;1.10;;
21426;SDS011;10874;49.452;11.050;2023-05-10T14:55:27;0.90;;;0.90;;
21426;SDS011;10874;49.452;11.050;2023-05-10T14:57:53;1.37;;;1.30;;
21426;SDS011;10874;49.452;11.050;2023-05-10T15:00:20;1.47;;;1.37;;
21426;SDS011;10874;49.452;11.050;2023-05-10T15:02:48;1.43;;;1.10;;
21426;SDS011;10874;49.452;11.050;2023-05-10T15:05:15;1.30;;;1.20;;
21426;SDS011;10874;49.452;11.050;2023-05-10T15:07:43;1.47;;;1.20;;
21426;SDS011;10874;49.452;11.050;2023-05-10T15:10:10;1.77;;;1.50;;
21426;SDS011;10874;49.452;11.050;2023-05-10T15:12:37;2.87;;;1.50;;
21426;SDS011;10874;49.452;11.050;2023-05-10T15:15:04;3.33;;;1.60;;
21426;SDS011;10874;49.452;11.050;2023-05-10T15:17:31;3.93;;;1.87;;